Time;durP1;ratioP1;P1;durP2;ratioP2;P2;SDS_P1;SDS_P2;PMS_P1;PMS_P2;Temp;Humidity;BMP_temperature;BMP_pressure;BME280_temperature;BME280_humidity;BME280_pressure;Samples;Min_cycle;Max_cycle;Signal;HPM_P1;HPM_P2
2022/05/13 00:00:11;;;;;;;3.22;2.00;;;;;;;-145.52;100.00;57022.44;5074843;28;20550;-69
2022/05/13 00:02:37;;;;;;;3.58;2.10;;;;;;;-145.52;100.00;57022.44;5068695;28;20391;-71
2022/05/13 00:05:05;;;;;;;4.32;1.80;;;;;;;-145.52;100.00;57022.44;5071735;28;20041;-69
2022/05/13 00:07:31;;;;;;;4.43;1.70;;;;;;;-145.52;100.00;57022.44;5076400;28;20040;-70
2022/05/13 00:09:56;;;;;;;3.40;1.67;;;;;;;-145.52;100.00;57022.44;5074431;28;20063;-69
2022/05/13 00:12:30;;;;;;;5.05;1.75;;;;;;;-145.52;100.00;57022.44;5071542;28;20044;-70
2022/05/13 00:14:56;;;;;;;5.20;1.73;;;;;;;-145.52;100.00;57022.44;5067791;28;20032;-70
2022/05/13 00:17:23;;;;;;;2.05;1.40;;;;;;;-145.52;100.00;57022.44;5072796;28;20519;-68
2022/05/13 00:19:49;;;;;;;3.92;1.63;;;;;;;-145.52;100.00;57022.44;5075149;28;20080;-70
2022/05/13 00:22:16;;;;;;;3.50;1.48;;;;;;;-145.52;100.00;57022.44;5072971;28;20060;-72
2022/05/13 00:24:41;;;;;;;5.72;1.63;;;;;;;-145.52;100.00;57022.44;5072866;28;20025;-71
2022/05/13 00:27:07;;;;;;;2.83;1.20;;;;;;;-145.52;100.00;57022.44;5077378;28;20063;-71
2022/05/13 00:29:34;;;;;;;4.40;1.80;;;;;;;-145.52;100.00;57022.44;5077755;28;20106;-69
2022/05/13 00:31:59;;;;;;;5.72;1.85;;;;;;;-145.52;100.00;57022.44;5072103;28;20024;-72
2022/05/13 00:34:25;;;;;;;3.78;1.77;;;;;;;-145.52;100.00;57022.44;5073354;28;20024;-72
2022/05/13 00:36:51;;;;;;;4.82;1.63;;;;;;;-145.52;100.00;57022.44;5075141;28;20468;-72
2022/05/13 00:39:17;;;;;;;4.00;1.63;;;;;;;-145.52;100.00;57022.44;5072638;28;20527;-72
2022/05/13 00:41:42;;;;;;;1.80;1.20;;;;;;;-145.52;100.00;57022.44;5072024;28;20111;-70
2022/05/13 00:44:08;;;;;;;4.05;1.60;;;;;;;-145.52;100.00;57022.44;5071054;28;20028;-71
2022/05/13 00:46:34;;;;;;;4.05;1.20;;;;;;;-145.52;100.00;57022.44;5073858;28;20387;-72
2022/05/13 00:49:03;;;;;;;5.57;1.50;;;;;;;-145.52;100.00;57022.44;5082196;28;20384;-70
2022/05/13 00:51:33;;;;;;;3.67;1.50;;;;;;;-145.52;100.00;57022.44;5072614;28;20033;-72
2022/05/13 00:53:59;;;;;;;3.88;1.40;;;;;;;-145.52;100.00;57022.44;5072611;28;20041;-70
2022/05/13 00:56:25;;;;;;;3.55;1.60;;;;;;;-145.52;100.00;57022.44;5070033;28;20081;-71
2022/05/13 00:58:56;;;;;;;3.95;1.40;;;;;;;-145.52;100.00;57022.44;5077882;28;20035;-69
2022/05/13 01:01:22;;;;;;;3.58;1.08;;;;;;;-145.52;100.00;57022.44;5072844;28;20032;-72
2022/05/13 01:03:49;;;;;;;2.35;1.00;;;;;;;-145.52;100.00;57022.44;5076401;28;20107;-72
2022/05/13 01:06:20;;;;;;;2.55;1.17;;;;;;;-145.52;100.00;57022.44;5075470;28;20041;-72
2022/05/13 01:08:47;;;;;;;4.32;1.50;;;;;;;-145.52;100.00;57022.44;5076693;28;20035;-72
2022/05/13 01:11:15;;;;;;;3.00;1.10;;;;;;;-145.52;100.00;57022.44;5072595;28;20431;-71
2022/05/13 01:13:44;;;;;;;3.13;1.10;;;;;;;-145.52;100.00;57022.44;5073114;28;20115;-70
2022/05/13 01:16:10;;;;;;;5.30;1.40;;;;;;;-145.52;100.00;57022.44;5075003;28;20047;-70
2022/05/13 01:18:38;;;;;;;5.32;1.33;;;;;;;-145.52;100.00;57022.44;5072280;28;20060;-71
2022/05/13 01:21:07;;;;;;;3.47;1.75;;;;;;;-145.52;100.00;57022.44;5077325;28;20034;-71
2022/05/13 01:23:36;;;;;;;3.78;1.60;;;;;;;-145.52;100.00;57022.44;5071952;28;20468;-72
2022/05/13 01:26:25;;;;;;;6.15;2.03;;;;;;;-145.52;100.00;57022.44;5068384;28;20024;-71
2022/05/13 01:28:53;;;;;;;3.40;1.60;;;;;;;-145.52;100.00;57022.44;5061482;28;20075;-71
2022/05/13 01:31:29;;;;;;;3.90;1.63;;;;;;;-145.52;100.00;57022.44;5068396;28;20035;-71
2022/05/13 01:33:56;;;;;;;4.10;1.92;;;;;;;-145.52;100.00;57022.44;5071532;28;20021;-71
2022/05/13 01:36:21;;;;;;;7.10;2.00;;;;;;;-145.52;100.00;57022.44;5072688;28;20466;-72
2022/05/13 01:38:48;;;;;;;3.65;1.88;;;;;;;-145.52;100.00;57022.44;5073865;28;20116;-71
2022/05/13 01:41:14;;;;;;;5.10;1.50;;;;;;;-145.52;100.00;57022.44;5078533;28;20036;-71
2022/05/13 01:43:42;;;;;;;4.47;1.92;;;;;;;-145.52;100.00;57022.44;5074005;28;20024;-72
2022/05/13 01:46:09;;;;;;;3.60;1.80;;;;;;;-145.52;100.00;57022.44;5079815;28;20476;-72
2022/05/13 01:48:35;;;;;;;3.05;1.60;;;;;;;-145.52;100.00;57022.44;5077203;28;20472;-72
2022/05/13 01:51:01;;;;;;;3.85;2.03;;;;;;;-145.52;100.00;57022.44;5070226;28;20034;-70
2022/05/13 01:53:26;;;;;;;3.13;1.85;;;;;;;-145.52;100.00;57022.44;5070694;28;20029;-72
2022/05/13 01:55:52;;;;;;;5.22;2.40;;;;;;;-145.52;100.00;57022.44;5071760;28;20068;-70
2022/05/13 01:58:21;;;;;;;4.20;2.00;;;;;;;-145.52;100.00;57022.44;5071067;28;20115;-69
2022/05/13 02:00:49;;;;;;;4.45;2.20;;;;;;;-145.52;100.00;57022.44;5072233;28;20060;-72
2022/05/13 02:05:59;;;;;;;4.07;2.03;;;;;;;-145.52;100.00;57022.44;5071236;28;20047;-70
2022/05/13 02:08:24;;;;;;;3.65;1.90;;;;;;;-145.52;100.00;57022.44;5071782;28;20037;-69
2022/05/13 02:10:50;;;;;;;4.40;2.00;;;;;;;-145.52;100.00;57022.44;5072432;28;20051;-70
2022/05/13 02:13:16;;;;;;;4.50;2.03;;;;;;;-145.52;100.00;57022.44;5069879;28;20446;-70
2022/05/13 02:15:42;;;;;;;3.88;1.95;;;;;;;-145.52;100.00;57022.44;5072282;28;20056;-70
2022/05/13 02:18:09;;;;;;;3.85;2.30;;;;;;;-145.52;100.00;57022.44;5070559;28;20067;-69
2022/05/13 02:20:35;;;;;;;4.63;2.10;;;;;;;-145.52;100.00;57022.44;5070956;28;20036;-69
2022/05/13 02:23:01;;;;;;;5.00;2.53;;;;;;;-145.52;100.00;57022.44;5075971;28;20028;-69
2022/05/13 02:25:29;;;;;;;4.10;1.80;;;;;;;-145.52;100.00;57022.44;5077158;28;20036;-70
2022/05/13 02:27:55;;;;;;;6.00;2.42;;;;;;;-145.52;100.00;57022.44;5077773;28;20028;-68
2022/05/13 02:30:22;;;;;;;5.18;2.30;;;;;;;-145.52;100.00;57022.44;5069440;28;20031;-69
2022/05/13 02:32:47;;;;;;;6.10;1.90;;;;;;;-145.52;100.00;57022.44;5071959;28;20090;-69
2022/05/13 02:35:13;;;;;;;4.88;1.80;;;;;;;-145.52;100.00;57022.44;5067943;28;20033;-69
2022/05/13 02:37:38;;;;;;;4.65;2.28;;;;;;;-145.52;100.00;57022.44;5067628;28;20029;-70
2022/05/13 02:40:04;;;;;;;6.50;2.42;;;;;;;-145.52;100.00;57022.44;5076128;28;20483;-69
2022/05/13 02:42:30;;;;;;;4.72;2.05;;;;;;;-145.52;100.00;57022.44;5074541;28;20029;-70
2022/05/13 02:44:55;;;;;;;7.20;2.88;;;;;;;-145.52;100.00;57022.44;5075350;28;20468;-68
2022/05/13 02:47:21;;;;;;;7.43;3.15;;;;;;;-145.52;100.00;57022.44;5073841;28;20553;-70
2022/05/13 02:49:46;;;;;;;9.13;4.15;;;;;;;-145.52;100.00;57022.44;5076186;28;20024;-70
2022/05/13 02:52:12;;;;;;;13.25;5.75;;;;;;;-145.52;100.00;57022.44;5080472;28;20474;-69
2022/05/13 02:54:38;;;;;;;15.23;6.15;;;;;;;-145.52;100.00;57022.44;5074381;28;20028;-69
2022/05/13 02:57:04;;;;;;;19.05;7.43;;;;;;;-145.52;100.00;57022.44;5077751;28;20495;-69
2022/05/13 02:59:30;;;;;;;16.92;8.50;;;;;;;-145.52;100.00;57022.44;5074946;28;20063;-69
2022/05/13 03:01:56;;;;;;;17.60;8.10;;;;;;;-145.52;100.00;57022.44;5077641;28;20460;-70
2022/05/13 03:04:22;;;;;;;15.63;8.00;;;;;;;-145.52;100.00;57022.44;5073581;28;20675;-71
2022/05/13 03:06:48;;;;;;;19.35;8.82;;;;;;;-145.52;100.00;57022.44;5078608;28;20047;-69
2022/05/13 03:09:13;;;;;;;13.13;7.10;;;;;;;-145.52;100.00;57022.44;5078664;28;20123;-69
2022/05/13 03:11:39;;;;;;;9.60;5.32;;;;;;;-145.52;100.00;57022.44;5073800;28;20396;-70
2022/05/13 03:14:04;;;;;;;14.23;6.60;;;;;;;-145.52;100.00;57022.44;5076671;28;20094;-72
2022/05/13 03:16:31;;;;;;;11.00;5.75;;;;;;;-145.52;100.00;57022.44;5074512;28;20045;-71
2022/05/13 03:18:59;;;;;;;13.50;5.72;;;;;;;-145.52;100.00;57022.44;5074375;28;20059;-68
2022/05/13 03:21:26;;;;;;;8.35;3.78;;;;;;;-145.52;100.00;57022.44;5075947;28;20055;-71
2022/05/13 03:23:52;;;;;;;7.47;3.97;;;;;;;-145.52;100.00;57022.44;5074925;28;21561;-70
2022/05/13 03:26:20;;;;;;;5.30;2.60;;;;;;;-145.52;100.00;57022.44;5074688;28;20118;-71
2022/05/13 03:28:46;;;;;;;5.75;2.63;;;;;;;-145.52;100.00;57022.44;5092398;28;20076;-69
2022/05/13 03:31:12;;;;;;;7.28;2.40;;;;;;;-145.52;100.00;57022.44;5075390;28;20071;-72
2022/05/13 03:33:38;;;;;;;5.82;2.30;;;;;;;-145.52;100.00;57022.44;5087222;28;20035;-71
2022/05/13 03:36:05;;;;;;;5.38;2.33;;;;;;;-145.52;100.00;57022.44;5089323;28;20070;-72
2022/05/13 03:38:30;;;;;;;4.13;1.75;;;;;;;-145.52;100.00;57022.44;5083475;28;20127;-72
2022/05/13 03:40:56;;;;;;;3.53;2.03;;;;;;;-145.52;100.00;57022.44;5080857;28;20116;-70
2022/05/13 03:43:21;;;;;;;5.38;2.20;;;;;;;-145.52;100.00;57022.44;5087846;28;20147;-72
2022/05/13 03:45:47;;;;;;;4.88;1.90;;;;;;;-145.52;100.00;57022.44;5093229;28;20558;-73
2022/05/13 03:48:12;;;;;;;6.93;1.95;;;;;;;-145.52;100.00;57022.44;5075934;28;20036;-70
2022/05/13 03:50:40;;;;;;;3.47;2.00;;;;;;;-145.52;100.00;57022.44;5081633;28;20039;-72
2022/05/13 03:53:06;;;;;;;4.28;2.05;;;;;;;-145.52;100.00;57022.44;5075735;28;20036;-70
2022/05/13 03:55:33;;;;;;;2.88;1.50;;;;;;;-145.52;100.00;57022.44;5079472;28;20092;-72
2022/05/13 03:57:59;;;;;;;4.10;1.98;;;;;;;-145.52;100.00;57022.44;5072924;28;20457;-72
2022/05/13 04:00:25;;;;;;;4.38;2.00;;;;;;;-145.52;100.00;57022.44;5085148;28;20068;-71
2022/05/13 04:02:50;;;;;;;5.78;2.42;;;;;;;-145.52;100.00;57022.44;5087946;28;20032;-72
2022/05/13 04:10:44;;;;;;;4.25;2.22;;;;;;;-145.52;100.00;57022.44;5063503;28;20043;-72
2022/05/13 04:16:04;;;;;;;4.53;2.20;;;;;;;-145.52;100.00;57022.44;5068759;28;20048;-72
2022/05/13 04:18:34;;;;;;;4.57;2.63;;;;;;;-145.52;100.00;57022.44;5073748;28;20035;-72
2022/05/13 04:21:00;;;;;;;5.18;2.13;;;;;;;-145.52;100.00;57022.44;5080497;28;20036;-72
2022/05/13 04:23:27;;;;;;;4.10;1.90;;;;;;;-145.52;100.00;57022.44;5078912;28;20081;-71
2022/05/13 04:25:52;;;;;;;7.07;2.08;;;;;;;-145.52;100.00;57022.44;5084842;28;20043;-71
2022/05/13 04:28:17;;;;;;;3.60;1.88;;;;;;;-145.52;100.00;57022.44;5083620;28;20036;-70
2022/05/13 04:30:43;;;;;;;5.22;2.22;;;;;;;-145.52;100.00;57022.44;5086279;28;20044;-70
2022/05/13 04:33:13;;;;;;;4.97;1.77;;;;;;;-145.52;100.00;57022.44;5079238;28;20033;-69
2022/05/13 04:35:38;;;;;;;3.78;2.33;;;;;;;-145.52;100.00;57022.44;5090992;28;20032;-70
2022/05/13 04:38:03;;;;;;;3.42;2.03;;;;;;;-145.52;100.00;57022.44;5064686;28;20040;-69
2022/05/13 04:40:29;;;;;;;6.82;2.55;;;;;;;-145.52;100.00;57022.44;5071157;28;20399;-72
2022/05/13 04:42:55;;;;;;;5.82;2.15;;;;;;;-145.52;100.00;57022.44;5075572;28;20487;-70
2022/05/13 04:45:26;;;;;;;6.20;2.33;;;;;;;-145.52;100.00;57022.44;5071589;28;20373;-70
2022/05/13 04:48:16;;;;;;;7.38;2.75;;;;;;;-145.52;100.00;57022.44;5073137;28;20032;-70
2022/05/13 04:50:43;;;;;;;8.57;2.90;;;;;;;-145.52;100.00;57022.44;5074860;28;20032;-69
2022/05/13 04:53:10;;;;;;;7.30;2.95;;;;;;;-145.52;100.00;57022.44;5080520;28;20032;-72
2022/05/13 04:55:37;;;;;;;7.43;3.22;;;;;;;-145.52;100.00;57022.44;5079038;28;20031;-70
2022/05/13 04:58:04;;;;;;;7.78;3.05;;;;;;;-145.52;100.00;57022.44;5075854;28;20086;-70
2022/05/13 05:00:30;;;;;;;5.53;2.40;;;;;;;-145.52;100.00;57022.44;5070616;28;20123;-69
2022/05/13 05:02:56;;;;;;;4.47;2.50;;;;;;;-145.52;100.00;57022.44;5076000;28;20044;-70
2022/05/13 05:05:22;;;;;;;6.72;2.88;;;;;;;-145.52;100.00;57022.44;5072079;28;20029;-69
2022/05/13 05:07:48;;;;;;;4.78;2.53;;;;;;;-145.52;100.00;57022.44;5047998;28;20048;-70
2022/05/13 05:10:14;;;;;;;4.00;2.13;;;;;;;-145.52;100.00;57022.44;5051324;28;20047;-69
2022/05/13 05:12:41;;;;;;;5.15;2.10;;;;;;;-145.52;100.00;57022.44;5072028;28;20028;-70
2022/05/13 05:15:07;;;;;;;5.82;2.33;;;;;;;-145.52;100.00;57022.44;5071397;28;20468;-69
2022/05/13 05:17:33;;;;;;;3.35;2.13;;;;;;;-145.52;100.00;57022.44;5072256;28;20112;-71
2022/05/13 05:19:58;;;;;;;5.53;2.00;;;;;;;-145.52;100.00;57022.44;5071713;28;20123;-72
2022/05/13 05:22:24;;;;;;;4.53;1.88;;;;;;;-145.52;100.00;57022.44;5075786;28;20445;-71
2022/05/13 05:24:49;;;;;;;4.13;2.00;;;;;;;-145.52;100.00;57022.44;5074423;28;20044;-69
2022/05/13 05:27:15;;;;;;;2.40;1.83;;;;;;;-145.52;100.00;57022.44;5052270;28;20063;-71
2022/05/13 05:29:43;;;;;;;4.80;2.20;;;;;;;-145.52;100.00;57022.44;5070157;28;20033;-72
2022/05/13 05:32:09;;;;;;;7.22;2.20;;;;;;;-145.52;100.00;57022.44;5072437;28;20036;-73
2022/05/13 05:34:34;;;;;;;8.98;2.50;;;;;;;-145.52;100.00;57022.44;5072700;28;20109;-71
2022/05/13 05:37:00;;;;;;;6.53;2.70;;;;;;;-145.52;100.00;57022.44;5069700;28;20028;-72
2022/05/13 05:39:25;;;;;;;7.00;2.60;;;;;;;-145.52;100.00;57022.44;5072607;28;20044;-71
2022/05/13 05:41:51;;;;;;;5.57;1.85;;;;;;;-145.52;100.00;57022.44;5072261;28;20468;-70
2022/05/13 05:44:16;;;;;;;3.47;1.60;;;;;;;-145.52;100.00;57022.44;5070357;28;20036;-70
2022/05/13 05:46:42;;;;;;;4.75;2.00;;;;;;;-145.52;100.00;57022.44;5068555;28;20032;-70
2022/05/13 05:49:07;;;;;;;5.20;1.77;;;;;;;-145.52;100.00;57022.44;5071303;28;20039;-70
2022/05/13 05:51:33;;;;;;;3.80;1.92;;;;;;;-145.52;100.00;57022.44;5070889;28;20045;-70
2022/05/13 05:59:26;;;;;;;6.15;1.90;;;;;;;-145.52;100.00;57022.44;5066572;28;20186;-69
2022/05/13 06:01:52;;;;;;;5.03;1.55;;;;;;;-145.52;100.00;57022.44;5070570;28;20488;-69
2022/05/13 06:04:17;;;;;;;4.57;2.22;;;;;;;-145.52;100.00;57022.44;5071436;28;20040;-69
2022/05/13 06:06:43;;;;;;;5.00;1.85;;;;;;;-145.52;100.00;57022.44;5070889;28;20049;-68
2022/05/13 06:09:09;;;;;;;5.43;1.70;;;;;;;-145.52;100.00;57022.44;5073116;28;20384;-68
2022/05/13 06:11:37;;;;;;;3.47;1.60;;;;;;;-145.52;100.00;57022.44;5075996;28;20039;-69
2022/05/13 06:14:03;;;;;;;5.68;1.70;;;;;;;-145.52;100.00;57022.44;5075471;28;20029;-69
2022/05/13 06:16:30;;;;;;;5.38;1.75;;;;;;;-145.52;100.00;57022.44;5075508;28;20500;-69
2022/05/13 06:18:59;;;;;;;3.67;1.60;;;;;;;-145.52;100.00;57022.44;5075703;28;20070;-72
2022/05/13 06:21:25;;;;;;;3.88;1.48;;;;;;;-145.52;100.00;57022.44;5078456;28;20040;-70
2022/05/13 06:23:51;;;;;;;3.47;1.30;;;;;;;-145.52;100.00;57022.44;5068243;28;20460;-68
2022/05/13 06:26:16;;;;;;;5.30;1.65;;;;;;;-145.52;100.00;57022.44;5090889;28;20455;-68
2022/05/13 06:28:41;;;;;;;3.38;1.17;;;;;;;-145.52;100.00;57022.44;5083805;28;20107;-70
2022/05/13 06:31:07;;;;;;;4.75;1.52;;;;;;;-145.52;100.00;57022.44;5075884;28;20041;-71
2022/05/13 06:33:34;;;;;;;3.65;1.50;;;;;;;-145.52;100.00;57022.44;5076372;28;20138;-72
2022/05/13 06:35:59;;;;;;;4.82;1.45;;;;;;;-145.52;100.00;57022.44;5077100;28;20050;-71
2022/05/13 06:38:25;;;;;;;4.13;1.10;;;;;;;-145.52;100.00;57022.44;5072989;28;20411;-70
2022/05/13 06:40:53;;;;;;;4.45;1.30;;;;;;;-145.52;100.00;57022.44;5074484;28;20040;-70
2022/05/13 06:43:19;;;;;;;6.15;1.45;;;;;;;-145.52;100.00;57022.44;5073709;28;20111;-69
2022/05/13 06:45:45;;;;;;;2.55;1.23;;;;;;;-145.52;100.00;57022.44;5079860;28;20085;-71
2022/05/13 06:48:10;;;;;;;2.95;1.30;;;;;;;-145.52;100.00;57022.44;5081163;28;20039;-70
2022/05/13 06:50:36;;;;;;;4.05;1.35;;;;;;;-145.52;100.00;57022.44;5057348;28;20087;-71
2022/05/13 06:53:02;;;;;;;2.78;1.00;;;;;;;-145.52;100.00;57022.44;5073926;28;20056;-70
2022/05/13 06:55:28;;;;;;;3.55;1.30;;;;;;;-145.52;100.00;57022.44;5074312;28;20041;-71
2022/05/13 06:57:53;;;;;;;3.78;1.05;;;;;;;-145.52;100.00;57022.44;5072875;28;20032;-70
2022/05/13 07:00:19;;;;;;;4.13;0.90;;;;;;;-145.52;100.00;57022.44;5074829;28;20036;-70
2022/05/13 07:02:45;;;;;;;1.63;0.60;;;;;;;-145.52;100.00;57022.44;5075120;28;20021;-71
2022/05/13 07:05:14;;;;;;;4.70;0.65;;;;;;;-145.52;100.00;57022.44;5074638;28;20032;-71
2022/05/13 07:07:39;;;;;;;2.38;0.73;;;;;;;-145.52;100.00;57022.44;5075138;28;20095;-71
2022/05/13 07:10:06;;;;;;;2.63;0.55;;;;;;;-145.52;100.00;57022.44;5075777;28;20439;-71
2022/05/13 07:12:32;;;;;;;1.20;0.50;;;;;;;-145.52;100.00;57022.44;5074243;28;20060;-69
2022/05/13 07:14:58;;;;;;;3.10;0.60;;;;;;;-145.52;100.00;57022.44;5075495;28;20040;-71
2022/05/13 07:17:24;;;;;;;3.08;0.70;;;;;;;-145.52;100.00;57022.44;5073872;28;20036;-72
2022/05/13 07:19:50;;;;;;;2.05;0.65;;;;;;;-145.52;100.00;57022.44;5074154;28;20435;-71
2022/05/13 07:22:15;;;;;;;3.03;0.90;;;;;;;-145.52;100.00;57022.44;5073180;28;20033;-71
2022/05/13 07:24:41;;;;;;;2.70;0.77;;;;;;;-145.52;100.00;57022.44;5073700;28;20139;-71
2022/05/13 07:27:06;;;;;;;4.47;0.90;;;;;;;-145.52;100.00;57022.44;5074887;28;20033;-70
2022/05/13 07:29:32;;;;;;;4.30;1.00;;;;;;;-145.52;100.00;57022.44;5073907;28;20039;-72
2022/05/13 07:31:58;;;;;;;4.63;1.23;;;;;;;-145.52;100.00;57022.44;5073711;28;20448;-71
2022/05/13 07:34:24;;;;;;;4.28;1.42;;;;;;;-145.52;100.00;57022.44;5074202;28;20036;-72
2022/05/13 07:36:53;;;;;;;2.70;0.80;;;;;;;-145.52;100.00;57022.44;5074268;28;20483;-71
2022/05/13 07:42:07;;;;;;;1.77;0.47;;;;;;;-145.52;100.00;57022.44;5065253;28;20047;-72
2022/05/13 07:44:34;;;;;;;3.10;0.70;;;;;;;-145.52;100.00;57022.44;5075484;28;20036;-70
2022/05/13 07:47:00;;;;;;;3.33;0.80;;;;;;;-145.52;100.00;57022.44;5074000;28;20033;-71
2022/05/13 07:49:25;;;;;;;5.13;0.88;;;;;;;-145.52;100.00;57022.44;5073962;28;20032;-71
2022/05/13 07:51:50;;;;;;;4.75;0.80;;;;;;;-145.52;100.00;57022.44;5075187;28;20457;-72
2022/05/13 07:54:16;;;;;;;2.75;0.85;;;;;;;-145.52;100.00;57022.44;5074141;28;20119;-72
2022/05/13 07:56:41;;;;;;;3.95;0.90;;;;;;;-145.52;100.00;57022.44;5057050;28;20376;-71
2022/05/13 07:59:07;;;;;;;3.35;0.70;;;;;;;-145.52;100.00;57022.44;5073880;28;20173;-72
2022/05/13 08:01:33;;;;;;;2.80;0.60;;;;;;;-145.52;100.00;57022.44;5055039;28;20033;-72
2022/05/13 08:03:59;;;;;;;3.45;0.68;;;;;;;-145.52;100.00;57022.44;5053819;28;20040;-71
2022/05/13 08:06:24;;;;;;;2.60;0.70;;;;;;;-145.52;100.00;57022.44;5055046;28;20052;-72
2022/05/13 08:08:55;;;;;;;3.72;0.85;;;;;;;-145.52;100.00;57022.44;5053751;28;20480;-72
2022/05/13 08:11:22;;;;;;;4.55;0.82;;;;;;;-145.52;100.00;57022.44;5054976;28;20036;-72
2022/05/13 08:13:48;;;;;;;2.97;0.60;;;;;;;-145.52;100.00;57022.44;5059048;28;20102;-72
2022/05/13 08:16:16;;;;;;;2.72;1.10;;;;;;;-145.52;100.00;57022.44;5073116;28;20095;-72
2022/05/13 08:18:43;;;;;;;3.30;1.15;;;;;;;-145.52;100.00;57022.44;5074495;28;20028;-72
2022/05/13 08:21:09;;;;;;;2.45;0.70;;;;;;;-145.52;100.00;57022.44;5074711;28;20531;-72
2022/05/13 08:23:35;;;;;;;2.53;0.88;;;;;;;-145.52;100.00;57022.44;5074902;28;20114;-73
2022/05/13 08:26:02;;;;;;;2.70;0.70;;;;;;;-145.52;100.00;57022.44;5073958;28;20090;-73
2022/05/13 08:28:27;;;;;;;2.88;0.75;;;;;;;-145.52;100.00;57022.44;5074444;28;20032;-72
2022/05/13 08:30:53;;;;;;;3.72;0.85;;;;;;;-145.52;100.00;57022.44;5072367;28;20047;-71
2022/05/13 08:33:19;;;;;;;2.85;0.80;;;;;;;-145.52;100.00;57022.44;5071084;28;20499;-71
2022/05/13 08:35:48;;;;;;;3.47;0.70;;;;;;;-145.52;100.00;57022.44;5072643;28;20024;-71
2022/05/13 08:38:15;;;;;;;2.53;0.70;;;;;;;-145.52;100.00;57022.44;5068237;28;20041;-70
2022/05/13 08:40:52;;;;;;;4.85;0.90;;;;;;;-145.52;100.00;57022.44;5070413;28;20385;-66
2022/05/13 08:43:23;;;;;;;5.90;0.68;;;;;;;-145.52;100.00;57022.44;5070888;28;20439;-73
2022/05/13 08:46:01;;;;;;;1.98;0.80;;;;;;;-145.52;100.00;57022.44;5072319;28;20040;-73
2022/05/13 08:48:30;;;;;;;4.50;1.00;;;;;;;-145.52;100.00;57022.44;5073459;28;20028;-72
2022/05/13 08:51:03;;;;;;;3.83;0.70;;;;;;;-145.52;100.00;57022.44;5072722;28;20036;-72
2022/05/13 08:53:41;;;;;;;3.72;1.00;;;;;;;-145.52;100.00;57022.44;5074022;28;20036;-72
2022/05/13 08:56:10;;;;;;;4.95;0.82;;;;;;;-145.52;100.00;57022.44;5052841;28;20044;-72
2022/05/13 08:58:45;;;;;;;4.47;0.90;;;;;;;-145.52;100.00;57022.44;5052926;28;20029;-71
2022/05/13 09:01:19;;;;;;;1.60;0.68;;;;;;;-145.52;100.00;57022.44;5071228;28;20036;-73
2022/05/13 09:03:54;;;;;;;2.45;0.85;;;;;;;-145.52;100.00;57022.44;5072747;28;20040;-72
2022/05/13 09:06:32;;;;;;;2.35;0.80;;;;;;;-145.52;100.00;57022.44;5073829;28;20048;-71
2022/05/13 09:09:00;;;;;;;3.25;0.80;;;;;;;-145.52;100.00;57022.44;5073780;28;20059;-73
2022/05/13 09:11:31;;;;;;;4.55;1.00;;;;;;;-145.52;100.00;57022.44;5073955;28;20040;-73
2022/05/13 09:14:22;;;;;;;5.20;1.23;;;;;;;-145.52;100.00;57022.44;5070242;28;20086;-71
2022/05/13 09:16:59;;;;;;;2.67;0.70;;;;;;;-145.52;100.00;57022.44;5070614;28;20090;-71
2022/05/13 09:19:43;;;;;;;3.45;0.90;;;;;;;-145.52;100.00;57022.44;5069713;28;20039;-73
2022/05/13 09:22:12;;;;;;;5.30;1.02;;;;;;;-145.52;100.00;57022.44;5070098;28;20071;-72
2022/05/13 09:24:39;;;;;;;5.35;1.30;;;;;;;-145.52;100.00;57022.44;5076382;28;20037;-72
2022/05/13 09:27:05;;;;;;;5.43;1.25;;;;;;;-145.52;100.00;57022.44;5070560;28;20040;-71
2022/05/13 09:29:42;;;;;;;4.20;1.27;;;;;;;-145.52;100.00;57022.44;5071920;28;20041;-72
2022/05/13 09:32:23;;;;;;;2.42;0.75;;;;;;;-145.52;100.00;57022.44;5070536;28;20068;-71
2022/05/13 09:34:56;;;;;;;4.75;0.77;;;;;;;-145.52;100.00;57022.44;5070190;28;20028;-71
2022/05/13 09:37:24;;;;;;;3.97;1.00;;;;;;;-145.52;100.00;57022.44;5069805;28;20829;-72
2022/05/13 09:40:05;;;;;;;3.15;1.35;;;;;;;-145.52;100.00;57022.44;5072645;28;20024;-72
2022/05/13 09:42:42;;;;;;;3.53;0.80;;;;;;;-145.52;100.00;57022.44;5070310;28;20029;-72
2022/05/13 09:45:17;;;;;;;3.63;0.80;;;;;;;-145.52;100.00;57022.44;5067975;28;20075;-72
2022/05/13 09:47:57;;;;;;;3.88;0.80;;;;;;;-145.52;100.00;57022.44;5072184;28;20044;-74
2022/05/13 09:50:26;;;;;;;3.45;1.08;;;;;;;-145.52;100.00;57022.44;5071815;28;20028;-74
2022/05/13 09:52:52;;;;;;;1.85;0.70;;;;;;;-145.52;100.00;57022.44;5067656;28;20040;-73
2022/05/13 09:55:31;;;;;;;2.60;1.08;;;;;;;-145.52;100.00;57022.44;5071350;28;20039;-73
2022/05/13 09:58:00;;;;;;;1.40;0.63;;;;;;;-145.52;100.00;57022.44;5070849;28;20033;-74
2022/05/13 10:00:38;;;;;;;2.88;0.80;;;;;;;-145.52;100.00;57022.44;5069081;28;20037;-72
2022/05/13 10:03:18;;;;;;;3.45;1.05;;;;;;;-145.52;100.00;57022.44;5067582;28;20086;-74
2022/05/13 10:05:45;;;;;;;5.03;0.88;;;;;;;-145.52;100.00;57022.44;5071747;28;20043;-74
2022/05/13 10:08:20;;;;;;;5.38;0.95;;;;;;;-145.52;100.00;57022.44;5071417;28;20078;-73
2022/05/13 10:13:59;;;;;;;5.00;0.90;;;;;;;-145.52;100.00;57022.44;5068622;28;20039;-69
2022/05/13 10:16:38;;;;;;;5.97;0.98;;;;;;;-145.52;100.00;57022.44;5072505;28;20060;-74
2022/05/13 10:19:12;;;;;;;2.40;0.88;;;;;;;-145.52;100.00;57022.44;5073013;28;20104;-74
2022/05/13 10:21:50;;;;;;;2.95;0.70;;;;;;;-145.52;100.00;57022.44;5080623;28;20029;-73
2022/05/13 10:24:47;;;;;;;4.53;0.70;;;;;;;-145.52;100.00;57022.44;5070665;28;20050;-71
2022/05/13 10:27:22;;;;;;;7.68;0.80;;;;;;;-145.52;100.00;57022.44;5073033;28;20033;-73
2022/05/13 10:29:51;;;;;;;2.25;0.70;;;;;;;-145.52;100.00;57022.44;5072231;28;20089;-72
2022/05/13 10:32:33;;;;;;;5.45;0.77;;;;;;;-145.52;100.00;57022.44;5073051;28;20033;-72
2022/05/13 10:35:04;;;;;;;2.08;0.60;;;;;;;-145.52;100.00;57022.44;5072587;28;20403;-71
2022/05/13 10:38:01;;;;;;;1.83;0.70;;;;;;;-145.52;100.00;57022.44;5071500;28;20029;-73
2022/05/13 10:40:34;;;;;;;1.50;0.50;;;;;;;-145.52;100.00;57022.44;5062867;28;20032;-72
2022/05/13 10:43:09;;;;;;;3.30;0.40;;;;;;;-145.52;100.00;57022.44;5072488;28;20055;-72
2022/05/13 10:45:37;;;;;;;2.88;0.47;;;;;;;-145.52;100.00;57022.44;5072048;28;20063;-71
2022/05/13 10:48:02;;;;;;;2.90;0.68;;;;;;;-145.52;100.00;57022.44;5071984;28;20024;-72
2022/05/13 10:51:08;;;;;;;2.58;0.60;;;;;;;-145.52;100.00;57022.44;5073539;28;20035;-73
2022/05/13 10:53:52;;;;;;;3.33;0.50;;;;;;;-145.52;100.00;57022.44;5052828;28;20048;-72
2022/05/13 10:56:24;;;;;;;4.10;0.93;;;;;;;-145.52;100.00;57022.44;5065799;28;20082;-72
2022/05/13 10:59:10;;;;;;;2.13;0.60;;;;;;;-145.52;100.00;57022.44;5065660;28;20392;-70
2022/05/13 11:01:40;;;;;;;2.22;0.60;;;;;;;-145.52;100.00;57022.44;5078637;28;20559;-73
2022/05/13 11:04:33;;;;;;;1.60;0.40;;;;;;;-145.52;100.00;57022.44;5075836;28;20060;-72
2022/05/13 11:07:17;;;;;;;3.13;0.63;;;;;;;-145.52;100.00;57022.44;5074761;28;20144;-73
2022/05/13 11:09:49;;;;;;;1.65;0.50;;;;;;;-145.52;100.00;57022.44;5079873;28;20021;-73
2022/05/13 11:12:14;;;;;;;3.17;0.85;;;;;;;-145.52;100.00;57022.44;5064074;28;20102;-73
2022/05/13 11:14:45;;;;;;;1.83;0.70;;;;;;;-145.52;100.00;57022.44;5085136;28;20037;-73
2022/05/13 11:17:29;;;;;;;1.83;0.68;;;;;;;-145.52;100.00;57022.44;5075009;28;20037;-72
2022/05/13 11:20:00;;;;;;;3.55;0.57;;;;;;;-145.52;100.00;57022.44;5072982;28;20144;-73
2022/05/13 11:22:33;;;;;;;2.05;0.60;;;;;;;-145.52;100.00;57022.44;5073193;28;20040;-72
2022/05/13 11:28:04;;;;;;;3.15;0.63;;;;;;;-145.52;100.00;57022.44;5074692;28;20561;-72
2022/05/13 11:30:39;;;;;;;2.83;0.50;;;;;;;-145.52;100.00;57022.44;5074467;28;20028;-71
2022/05/13 11:33:40;;;;;;;3.20;0.88;;;;;;;-145.52;100.00;57022.44;5075554;28;20063;-73
2022/05/13 11:36:28;;;;;;;3.20;0.80;;;;;;;-145.52;100.00;57022.44;5072519;28;20117;-72
2022/05/13 11:39:24;;;;;;;1.77;0.60;;;;;;;-145.52;100.00;57022.44;5066785;28;20433;-72
2022/05/13 11:41:55;;;;;;;6.60;1.13;;;;;;;-145.52;100.00;57022.44;5071602;28;20031;-74